McQuady, Kentucky
Current Conditions -  °F | °C
As of 4:58 PM on Wednesday 26 Nov 2014 (Local Time) from KFTK Reporting Station
Broken Clouds Broken Clouds  
Wind Chill: 40°   Ceiling: 10000
Heat Index: 40°   Visibility: 10mi
Dew Point: 25°   Wind: 2mph
Humidity: 56%   Direction: 130°SE
Pressure: 30"   Gusts: NA
Location:  37.71°N, 86.52°W
Report Text: KFTK 262258Z AUTO 13002KT 10SM BKN100 05/M04 A3000 RMK AO2 SLP169 T00451037
Loading
Personal Weather Stations






























Interactive Weather Map New forecast layout! Learn more

10-Day Weather Forecast

Advertisements
Track Severe Weather on mobile